createdAt,value
2019-02-28T00:02:29.685Z,10.65
2019-02-28T00:05:00.388Z,10.65
2019-02-28T00:07:31.109Z,11.30
2019-02-28T00:10:01.435Z,11.10
2019-02-28T00:12:32.434Z,11.63
2019-02-28T00:15:03.096Z,11.05
2019-02-28T00:17:33.450Z,11.78
2019-02-28T00:20:05.004Z,11.93
2019-02-28T00:22:35.404Z,11.15
2019-02-28T00:25:08.935Z,12.90
2019-02-28T00:27:39.931Z,10.75
2019-02-28T00:30:17.045Z,10.78
2019-02-28T00:32:47.897Z,11.65
2019-02-28T00:35:18.812Z,11.97
2019-02-28T00:37:49.222Z,11.38
2019-02-28T00:40:19.874Z,11.08
2019-02-28T00:42:50.726Z,10.85
2019-02-28T00:45:22.589Z,11.65
2019-02-28T00:47:53.239Z,11.50
2019-02-28T00:50:27.592Z,12.55
2019-02-28T00:52:58.984Z,11.57
2019-02-28T00:55:29.637Z,11.00
2019-02-28T00:57:59.965Z,10.45
2019-02-28T01:00:30.595Z,11.38
2019-02-28T01:03:01.072Z,11.18
2019-02-28T01:05:31.689Z,10.98
2019-02-28T01:08:02.438Z,11.40
2019-02-28T01:10:39.304Z,11.93
2019-02-28T01:13:09.363Z,11.78
2019-02-28T01:15:44.488Z,11.70
2019-02-28T01:18:11.981Z,11.80
2019-02-28T01:20:42.937Z,11.50
2019-02-28T01:23:13.480Z,10.65
2019-02-28T01:25:44.082Z,10.13
2019-02-28T01:28:14.785Z,10.88
2019-02-28T01:30:45.165Z,12.00
2019-02-28T01:33:15.820Z,11.45
2019-02-28T01:35:46.148Z,10.95
2019-02-28T01:38:16.694Z,10.80
2019-02-28T01:40:47.024Z,11.68
2019-02-28T01:43:17.348Z,10.68
2019-02-28T01:45:47.977Z,10.48
2019-02-28T01:48:18.897Z,10.03
2019-02-28T01:50:49.224Z,10.10
2019-02-28T01:53:19.896Z,10.13
2019-02-28T01:55:50.250Z,11.25
2019-02-28T01:58:20.894Z,10.38
2019-02-28T02:00:53.539Z,10.82
2019-02-28T02:03:24.001Z,9.80
2019-02-28T02:05:54.623Z,10.32
2019-02-28T02:08:25.419Z,10.20
2019-02-28T02:10:56.165Z,10.20
2019-02-28T02:13:26.928Z,9.00
2019-02-28T02:15:57.657Z,9.40
2019-02-28T02:18:28.279Z,10.10
2019-02-28T02:21:00.119Z,10.13
2019-02-28T02:23:31.266Z,11.30
2019-02-28T02:26:01.906Z,9.48
2019-02-28T02:28:33.070Z,9.20
2019-02-28T02:31:03.797Z,9.78
2019-02-28T02:33:34.263Z,8.45
2019-02-28T02:36:04.892Z,9.23
2019-02-28T02:38:40.173Z,8.93
2019-02-28T02:41:07.939Z,8.15
2019-02-28T02:43:38.265Z,8.80
2019-02-28T02:46:08.911Z,9.03
2019-02-28T02:48:42.322Z,8.03
2019-02-28T02:51:12.608Z,8.20
2019-02-28T02:53:43.568Z,8.75
2019-02-28T02:56:14.428Z,8.50
2019-02-28T02:58:45.111Z,8.83
2019-02-28T03:01:15.743Z,9.85
2019-02-28T03:03:46.123Z,8.10
2019-02-28T03:06:16.718Z,7.85
2019-02-28T03:08:47.375Z,8.25
2019-02-28T03:11:17.735Z,9.40
2019-02-28T03:13:48.375Z,8.45
2019-02-28T03:16:19.014Z,8.83
2019-02-28T03:18:56.937Z,9.10
2019-02-28T03:21:22.096Z,8.70
2019-02-28T03:23:52.589Z,8.23
2019-02-28T03:26:23.247Z,9.30
2019-02-28T03:28:53.585Z,8.95
2019-02-28T03:31:24.126Z,8.73
2019-02-28T03:33:54.436Z,7.95
2019-02-28T03:36:24.755Z,8.10
2019-02-28T03:38:55.435Z,7.83
2019-02-28T03:41:26.286Z,8.50
2019-02-28T03:43:56.634Z,8.20
2019-02-28T03:46:26.995Z,8.40
2019-02-28T03:48:57.336Z,8.38
2019-02-28T03:51:28.734Z,9.23
2019-02-28T03:54:00.259Z,9.45
2019-02-28T03:56:30.850Z,9.20
2019-02-28T03:59:01.176Z,9.70
2019-02-28T04:01:31.554Z,9.53
2019-02-28T04:04:01.902Z,8.60
2019-02-28T04:06:32.228Z,9.35
2019-02-28T04:09:08.463Z,10.28
2019-02-28T04:11:35.706Z,9.63
2019-02-28T04:14:06.296Z,9.88
2019-02-28T04:16:36.947Z,9.75
2019-02-28T04:19:07.273Z,10.98
2019-02-28T04:21:37.601Z,10.80
2019-02-28T04:24:12.447Z,10.35
2019-02-28T04:26:40.435Z,10.55
2019-02-28T04:29:10.789Z,10.40
2019-02-28T04:31:41.426Z,10.98
2019-02-28T04:34:13.355Z,12.00
2019-02-28T04:36:44.117Z,11.83
2019-02-28T04:39:14.790Z,11.40
2019-02-28T04:41:45.715Z,12.25
2019-02-28T04:44:18.265Z,11.90
2019-02-28T04:46:48.098Z,12.88
2019-02-28T04:49:21.825Z,12.78
2019-02-28T04:51:50.770Z,11.60
2019-02-28T04:54:24.575Z,12.37
2019-02-28T04:56:53.711Z,14.40
2019-02-28T04:59:24.304Z,15.00
2019-02-28T05:01:55.184Z,14.18
2019-02-28T05:04:25.846Z,14.35
2019-02-28T05:06:56.457Z,16.00
2019-02-28T05:09:27.146Z,15.83
2019-02-28T05:11:57.770Z,15.50
2019-02-28T05:14:28.406Z,16.32
2019-02-28T05:16:59.244Z,17.55
2019-02-28T05:19:35.405Z,18.37
2019-02-28T05:22:01.896Z,17.57
2019-02-28T05:24:32.554Z,17.77
2019-02-28T05:27:03.144Z,17.77
2019-02-28T05:29:33.468Z,18.40
2019-02-28T05:32:03.944Z,16.55
2019-02-28T05:34:34.412Z,17.82
2019-02-28T05:37:04.763Z,18.20
2019-02-28T05:39:35.652Z,19.30
2019-02-28T05:42:06.009Z,18.45
2019-02-28T05:44:37.387Z,18.65
2019-02-28T05:47:10.936Z,20.85
2019-02-28T05:49:41.994Z,21.17
2019-02-28T05:52:12.761Z,18.37
2019-02-28T05:54:43.239Z,19.77
2019-02-28T05:57:13.863Z,20.95
2019-02-28T05:59:44.757Z,20.50
2019-02-28T06:02:15.418Z,21.52
2019-02-28T06:04:46.041Z,20.85
2019-02-28T06:07:16.662Z,21.37
2019-02-28T06:09:48.803Z,21.73
2019-02-28T06:12:19.124Z,20.50
2019-02-28T06:14:49.765Z,22.17
2019-02-28T06:17:20.749Z,21.55
2019-02-28T06:19:52.532Z,21.73
2019-02-28T06:22:23.009Z,21.45
2019-02-28T06:24:53.415Z,22.42
2019-02-28T06:27:24.352Z,23.30
2019-02-28T06:29:54.905Z,25.17
2019-02-28T06:32:27.405Z,21.50
2019-02-28T06:34:57.742Z,24.87
2019-02-28T06:37:28.740Z,23.27
2019-02-28T06:39:59.375Z,23.52
2019-02-28T06:42:29.872Z,23.40
2019-02-28T06:45:02.648Z,22.60
2019-02-28T06:47:32.528Z,25.15
2019-02-28T06:50:03.476Z,27.35
2019-02-28T06:52:34.402Z,24.40
2019-02-28T06:55:12.598Z,25.95
2019-02-28T06:57:42.382Z,26.75
2019-02-28T07:00:15.585Z,26.60
2019-02-28T07:02:46.216Z,26.30
2019-02-28T07:05:16.812Z,26.30
2019-02-28T07:07:49.088Z,26.82
2019-02-28T07:10:19.572Z,25.70
2019-02-28T07:12:50.223Z,26.77
2019-02-28T07:15:24.802Z,25.12
2019-02-28T07:17:52.880Z,29.15
2019-02-28T07:20:23.500Z,28.83
2019-02-28T07:22:55.526Z,28.55
2019-02-28T07:25:26.481Z,29.18
2019-02-28T07:27:57.129Z,29.23
2019-02-28T07:30:27.859Z,30.05
2019-02-28T07:32:59.140Z,30.65
2019-02-28T07:35:33.196Z,32.85
2019-02-28T07:38:01.499Z,30.32
2019-02-28T07:40:33.292Z,31.82
2019-02-28T07:43:03.638Z,32.50
2019-02-28T07:45:34.235Z,33.05
2019-02-28T07:48:04.981Z,32.35
2019-02-28T07:50:35.329Z,34.18
2019-02-28T07:53:08.824Z,31.30
2019-02-28T07:55:38.057Z,33.63
2019-02-28T07:58:08.803Z,32.33
2019-02-28T08:00:39.177Z,32.65
2019-02-28T08:03:11.336Z,31.90
2019-02-28T08:05:41.617Z,33.67
2019-02-28T08:08:12.280Z,34.40
2019-02-28T08:10:42.651Z,33.60
2019-02-28T08:13:13.587Z,35.35
2019-02-28T08:15:43.951Z,36.55
2019-02-28T08:18:15.828Z,34.78
2019-02-28T08:20:46.398Z,35.65
2019-02-28T08:23:16.926Z,34.95
2019-02-28T08:25:47.699Z,34.80
2019-02-28T08:28:18.445Z,37.48
2019-02-28T08:30:54.724Z,38.17
2019-02-28T08:33:20.872Z,38.15
2019-02-28T08:35:51.231Z,39.35
2019-02-28T08:38:21.616Z,38.83
2019-02-28T08:40:52.547Z,38.40
2019-02-28T08:43:27.227Z,40.78
2019-02-28T08:45:55.960Z,36.80
2019-02-28T08:48:31.396Z,39.27
2019-02-28T08:50:58.681Z,36.58
2019-02-28T08:53:29.377Z,39.55
2019-02-28T08:55:59.747Z,40.55
2019-02-28T08:58:30.107Z,40.00
2019-02-28T09:01:00.746Z,38.00
2019-02-28T09:03:31.110Z,38.23
2019-02-28T09:06:03.803Z,41.48
2019-02-28T09:08:33.980Z,40.30
2019-02-28T09:11:04.584Z,40.23
2019-02-28T09:13:34.944Z,38.23
2019-02-28T09:16:05.622Z,38.40
2019-02-28T09:18:35.980Z,40.12
2019-02-28T09:21:06.327Z,39.65
2019-02-28T09:23:37.728Z,40.53
2019-02-28T09:26:09.068Z,39.83
2019-02-28T09:28:39.448Z,39.92
2019-02-28T09:31:10.240Z,39.83
2019-02-28T09:33:40.762Z,37.73
2019-02-28T09:36:11.109Z,39.13
2019-02-28T09:38:42.266Z,39.77
2019-02-28T09:41:14.146Z,41.50
2019-02-28T09:43:44.515Z,39.87
2019-02-28T09:46:15.551Z,39.77
2019-02-28T09:48:46.736Z,38.53
2019-02-28T09:51:17.105Z,37.93
2019-02-28T09:53:50.276Z,39.70
2019-02-28T09:56:19.827Z,41.07
2019-02-28T09:58:50.199Z,39.10
2019-02-28T10:01:21.226Z,41.07
2019-02-28T10:03:55.333Z,41.30
2019-02-28T10:06:24.956Z,41.87
2019-02-28T10:08:55.591Z,39.73
2019-02-28T10:11:31.516Z,38.40
2019-02-28T10:13:58.293Z,38.83
2019-02-28T10:16:28.679Z,40.83
2019-02-28T10:18:59.026Z,38.40
2019-02-28T10:21:29.373Z,38.20
2019-02-28T10:23:59.759Z,35.93
2019-02-28T10:26:30.367Z,34.90
2019-02-28T10:29:01.292Z,37.30
2019-02-28T10:31:38.080Z,36.80
2019-02-28T10:34:03.758Z,35.93
2019-02-28T10:36:34.508Z,38.33
2019-02-28T10:39:09.056Z,37.77
2019-02-28T10:41:38.749Z,38.30
2019-02-28T10:44:09.387Z,37.63
2019-02-28T10:46:39.771Z,38.23
2019-02-28T10:49:10.146Z,36.90
2019-02-28T10:51:40.757Z,37.93
2019-02-28T10:54:14.325Z,37.30
2019-02-28T10:56:43.187Z,39.37
2019-02-28T10:59:14.083Z,37.10
2019-02-28T11:01:44.479Z,39.90
2019-02-28T11:04:15.088Z,34.47
2019-02-28T11:06:46.853Z,35.47
2019-02-28T11:09:21.738Z,35.70
2019-02-28T11:11:51.405Z,37.40
2019-02-28T11:14:23.644Z,37.27
2019-02-28T11:16:58.944Z,36.73
2019-02-28T11:19:26.823Z,35.70
2019-02-28T11:21:57.187Z,36.40
2019-02-28T11:24:27.935Z,37.00
2019-02-28T11:26:58.306Z,35.90
2019-02-28T11:29:28.942Z,38.00
2019-02-28T11:31:59.582Z,36.20
2019-02-28T11:34:29.924Z,36.20
2019-02-28T11:37:00.399Z,37.20
2019-02-28T11:39:33.648Z,35.67
2019-02-28T11:42:02.894Z,35.03
2019-02-28T11:44:33.240Z,34.60
2019-02-28T11:47:03.657Z,34.33
2019-02-28T11:49:34.000Z,34.27
2019-02-28T11:52:04.386Z,33.47
2019-02-28T11:54:34.759Z,30.60
2019-02-28T11:57:06.845Z,31.40
2019-02-28T11:59:37.515Z,32.50
2019-02-28T12:02:07.971Z,34.30
2019-02-28T12:04:40.423Z,32.10
2019-02-28T12:07:10.618Z,35.03
2019-02-28T12:09:41.160Z,32.77
2019-02-28T12:12:11.798Z,33.37
2019-02-28T12:14:42.513Z,35.10
2019-02-28T12:17:15.068Z,35.77
2019-02-28T12:19:47.575Z,31.27
2019-02-28T12:22:17.593Z,32.80
2019-02-28T12:24:48.529Z,29.33
2019-02-28T12:27:19.189Z,33.20
2019-02-28T12:29:50.037Z,35.23
2019-02-28T12:32:20.435Z,35.03
2019-02-28T12:34:51.088Z,31.53
2019-02-28T12:37:22.262Z,33.07
2019-02-28T12:39:53.749Z,33.50
2019-02-28T12:42:24.359Z,31.60
2019-02-28T12:44:55.014Z,31.07
2019-02-28T12:47:28.918Z,30.90
2019-02-28T12:49:59.353Z,32.33
2019-02-28T12:52:30.002Z,33.53
2019-02-28T12:55:00.442Z,35.13
2019-02-28T12:57:30.786Z,33.70
2019-02-28T13:00:01.436Z,36.73
2019-02-28T13:02:32.350Z,32.87
2019-02-28T13:05:02.969Z,31.63
2019-02-28T13:07:33.899Z,31.63
2019-02-28T13:10:09.278Z,31.53
2019-02-28T13:12:40.311Z,31.13
2019-02-28T13:15:13.943Z,32.40
2019-02-28T13:17:44.628Z,31.80
2019-02-28T13:20:22.123Z,31.70
2019-02-28T13:22:55.609Z,30.70
2019-02-28T13:25:24.953Z,30.90
2019-02-28T13:30:26.525Z,33.90
2019-02-28T13:32:57.273Z,31.50
2019-02-28T13:35:33.901Z,35.20
2019-02-28T13:38:04.274Z,33.60
2019-02-28T13:40:34.893Z,32.90
2019-02-28T13:43:05.872Z,34.20
2019-02-28T13:45:36.212Z,32.07
2019-02-28T13:48:06.590Z,33.97
2019-02-28T13:50:37.852Z,31.90
2019-02-28T13:53:17.539Z,33.80
2019-02-28T13:55:41.103Z,34.07
2019-02-28T13:58:11.498Z,34.70
2019-02-28T14:00:45.588Z,34.43
2019-02-28T14:03:17.035Z,33.93
2019-02-28T14:05:47.440Z,37.50
2019-02-28T14:08:18.059Z,35.97
2019-02-28T14:10:48.424Z,33.83
2019-02-28T14:13:18.908Z,34.90
2019-02-28T14:15:52.522Z,34.93
2019-02-28T14:18:23.054Z,35.70
2019-02-28T14:20:53.727Z,36.23
2019-02-28T14:23:24.633Z,34.17
2019-02-28T14:25:55.237Z,32.90
2019-02-28T14:28:26.146Z,32.87
2019-02-28T14:30:57.521Z,34.17
2019-02-28T14:33:29.395Z,34.53
2019-02-28T14:36:00.065Z,34.33
2019-02-28T14:38:32.830Z,36.00
2019-02-28T14:41:02.736Z,34.50
2019-02-28T14:43:33.158Z,37.03
2019-02-28T14:46:03.739Z,37.07
2019-02-28T14:48:36.615Z,37.00
2019-02-28T14:51:06.144Z,38.37
2019-02-28T14:53:36.525Z,36.43
2019-02-28T14:56:07.443Z,37.20
2019-02-28T14:58:38.697Z,37.30
2019-02-28T15:01:09.513Z,37.67
2019-02-28T15:03:39.851Z,34.97
2019-02-28T15:06:10.264Z,34.63
2019-02-28T15:08:40.866Z,33.67
2019-02-28T15:11:11.211Z,34.20
2019-02-28T15:13:42.016Z,34.77
2019-02-28T15:16:12.657Z,37.00
2019-02-28T15:18:44.397Z,36.53
2019-02-28T15:21:15.130Z,37.67
2019-02-28T15:23:45.501Z,36.93
2019-02-28T15:26:16.131Z,37.87
2019-02-28T15:28:48.654Z,38.90
2019-02-28T15:31:18.615Z,39.43
2019-02-28T15:33:48.987Z,38.57
2019-02-28T15:36:20.892Z,38.70
2019-02-28T15:38:52.018Z,38.47
2019-02-28T15:41:22.369Z,37.70
2019-02-28T15:43:53.707Z,36.50
2019-02-28T15:46:24.713Z,35.27
2019-02-28T15:48:55.077Z,37.83
2019-02-28T15:51:29.104Z,36.53
2019-02-28T15:53:58.402Z,38.50
2019-02-28T15:56:28.804Z,37.00
2019-02-28T15:58:59.497Z,35.90
2019-02-28T16:01:32.345Z,34.53
2019-02-28T16:04:01.913Z,37.90
2019-02-28T16:06:32.537Z,35.70
2019-02-28T16:09:02.912Z,36.33
2019-02-28T16:11:33.577Z,35.93
2019-02-28T16:14:04.538Z,37.93
2019-02-28T16:16:34.915Z,35.00
2019-02-28T16:19:05.575Z,34.80
2019-02-28T16:21:38.195Z,36.17
2019-02-28T16:24:08.626Z,36.83
2019-02-28T16:26:39.250Z,37.10
2019-02-28T16:29:09.687Z,36.37
2019-02-28T16:31:41.636Z,36.83
2019-02-28T16:34:12.338Z,37.37
2019-02-28T16:36:42.968Z,38.17
2019-02-28T16:39:16.883Z,39.67
2019-02-28T16:41:46.229Z,41.90
2019-02-28T16:44:16.924Z,39.33
2019-02-28T16:46:49.965Z,44.00
2019-02-28T16:49:19.602Z,41.15
2019-02-28T16:51:49.961Z,43.90
2019-02-28T16:54:22.472Z,46.08
2019-02-28T16:56:52.375Z,45.65
2019-02-28T16:59:23.530Z,43.25
2019-02-28T17:01:54.865Z,43.68
2019-02-28T17:04:26.385Z,44.58
2019-02-28T17:06:57.012Z,45.30
2019-02-28T17:09:30.231Z,44.42
2019-02-28T17:12:02.703Z,45.17
2019-02-28T17:14:33.489Z,46.75
2019-02-28T17:17:05.483Z,45.60
2019-02-28T17:19:35.850Z,48.65
2019-02-28T17:22:06.231Z,46.48
2019-02-28T17:24:36.865Z,49.70
2019-02-28T17:27:17.673Z,50.20
2019-02-28T17:29:49.649Z,46.85
2019-02-28T17:32:20.184Z,47.35
2019-02-28T17:34:50.946Z,48.95
2019-02-28T17:37:26.027Z,47.00
2019-02-28T17:39:53.922Z,46.95
2019-02-28T17:42:24.345Z,49.45
2019-02-28T17:44:59.758Z,49.05
2019-02-28T17:47:55.952Z,47.25
2019-02-28T17:50:43.998Z,48.08
2019-02-28T17:53:45.667Z,49.85
2019-02-28T17:56:50.067Z,48.30
2019-02-28T17:59:49.226Z,49.83
2019-02-28T18:02:42.547Z,50.03
2019-02-28T18:05:45.890Z,45.83
2019-02-28T18:08:37.613Z,48.17
2019-02-28T18:11:35.526Z,49.40
2019-02-28T18:14:46.743Z,50.10
2019-02-28T18:18:02.080Z,54.03
2019-02-28T18:21:00.703Z,46.45
2019-02-28T18:24:11.919Z,47.10
2019-02-28T18:27:11.326Z,47.10
2019-02-28T18:30:09.128Z,47.40
2019-02-28T18:32:39.467Z,45.23
2019-02-28T18:35:10.559Z,49.48
2019-02-28T18:37:40.993Z,45.75
2019-02-28T18:40:11.336Z,45.73
2019-02-28T18:42:41.741Z,47.70
2019-02-28T18:45:15.625Z,45.40
2019-02-28T18:47:44.865Z,80.77
2019-02-28T18:50:15.260Z,58.15
2019-02-28T18:52:45.628Z,103.20
2019-02-28T18:55:16.246Z,67.17
2019-02-28T18:57:46.647Z,48.58
2019-02-28T19:00:18.924Z,47.53
2019-02-28T19:02:49.565Z,46.50
2019-02-28T19:05:20.206Z,46.33
2019-02-28T19:07:50.803Z,47.40
2019-02-28T19:10:21.138Z,44.18
2019-02-28T19:12:51.554Z,55.52
2019-02-28T19:15:22.286Z,51.30
2019-02-28T19:17:52.656Z,46.92
2019-02-28T19:20:23.013Z,45.30
2019-02-28T19:22:53.366Z,305.85
2019-02-28T19:25:23.948Z,56.18
2019-02-28T19:27:54.620Z,118.75
2019-02-28T19:30:25.225Z,88.17
2019-02-28T19:32:55.824Z,80.70
2019-02-28T19:35:26.196Z,95.28
2019-02-28T19:37:56.566Z,105.87
2019-02-28T19:40:26.896Z,59.70
2019-02-28T19:42:57.967Z,62.53
2019-02-28T19:45:44.507Z,69.72
2019-02-28T19:48:15.490Z,69.22
2019-02-28T19:50:45.853Z,67.80
2019-02-28T19:53:16.549Z,62.60
2019-02-28T19:55:46.888Z,54.63
2019-02-28T19:58:18.847Z,65.87
2019-02-28T20:00:49.406Z,59.13
2019-02-28T20:03:19.784Z,50.80
2019-02-28T20:05:50.126Z,53.20
2019-02-28T20:08:20.811Z,49.85
2019-02-28T20:10:51.285Z,55.60
2019-02-28T20:13:22.335Z,51.77
2019-02-28T20:15:52.965Z,52.88
2019-02-28T20:18:23.330Z,51.88
2019-02-28T20:20:53.975Z,57.27
2019-02-28T20:23:25.084Z,55.88
2019-02-28T20:25:55.747Z,55.75
2019-02-28T20:28:26.084Z,62.03
2019-02-28T20:30:57.018Z,47.70
2019-02-28T20:33:27.623Z,55.75
2019-02-28T20:35:57.954Z,50.50
2019-02-28T20:38:28.320Z,49.33
2019-02-28T20:40:58.958Z,47.15
2019-02-28T20:43:29.309Z,47.75
2019-02-28T20:45:59.926Z,47.48
2019-02-28T20:48:30.582Z,45.10
2019-02-28T20:51:00.930Z,50.20
2019-02-28T20:53:31.289Z,52.08
2019-02-28T20:56:02.040Z,47.20
2019-02-28T20:58:32.716Z,47.83
2019-02-28T21:01:03.242Z,50.30
2019-02-28T21:03:33.598Z,46.15
2019-02-28T21:06:04.002Z,47.40
2019-02-28T21:08:34.378Z,52.13
2019-02-28T21:11:05.135Z,49.08
2019-02-28T21:13:35.505Z,48.23
2019-02-28T21:16:05.857Z,46.88
2019-02-28T21:18:36.229Z,44.77
2019-02-28T21:21:06.874Z,46.98
2019-02-28T21:23:37.577Z,45.75
2019-02-28T21:26:09.364Z,45.88
2019-02-28T21:28:40.028Z,45.52
2019-02-28T21:31:10.399Z,49.53
2019-02-28T21:33:40.813Z,46.90
2019-02-28T21:36:11.479Z,43.10
2019-02-28T21:38:42.826Z,44.25
2019-02-28T21:41:13.497Z,44.35
2019-02-28T21:43:44.179Z,43.28
2019-02-28T21:46:14.544Z,43.33
2019-02-28T21:48:44.915Z,42.78
2019-02-28T21:51:15.260Z,43.65
2019-02-28T21:53:45.672Z,40.20
2019-02-28T21:56:16.033Z,42.85
2019-02-28T21:58:46.370Z,41.40
2019-02-28T22:01:16.793Z,40.88
2019-02-28T22:03:47.453Z,40.23
2019-02-28T22:06:19.415Z,40.73
2019-02-28T22:08:49.837Z,40.08
2019-02-28T22:11:20.441Z,38.80
2019-02-28T22:13:51.108Z,37.70
2019-02-28T22:16:21.442Z,39.40
2019-02-28T22:18:51.932Z,36.80
2019-02-28T22:21:22.360Z,31.82
2019-02-28T22:23:53.260Z,35.70
2019-02-28T22:26:23.920Z,33.23
2019-02-28T22:28:54.269Z,33.73
2019-02-28T22:31:39.006Z,31.70
2019-02-28T22:34:11.013Z,34.05
2019-02-28T22:36:42.128Z,32.03
2019-02-28T22:39:12.471Z,31.60
2019-02-28T22:41:43.172Z,31.85
2019-02-28T22:44:13.852Z,31.45
2019-02-28T22:46:44.459Z,32.35
2019-02-28T22:49:15.057Z,32.45
2019-02-28T22:51:45.484Z,32.98
2019-02-28T22:54:15.995Z,32.88
2019-02-28T22:56:46.674Z,30.85
2019-02-28T22:59:17.026Z,31.10
2019-02-28T23:01:47.378Z,31.90
2019-02-28T23:04:17.991Z,30.62
2019-02-28T23:06:48.352Z,29.37
2019-02-28T23:09:19.075Z,30.25
2019-02-28T23:11:49.383Z,31.10
2019-02-28T23:14:20.005Z,31.00
2019-02-28T23:16:50.922Z,31.25
2019-02-28T23:19:21.880Z,30.37
2019-02-28T23:21:52.503Z,30.25
2019-02-28T23:24:22.840Z,29.27
2019-02-28T23:27:14.716Z,32.42
2019-02-28T23:29:52.903Z,29.92
2019-02-28T23:32:30.936Z,29.98
2019-02-28T23:35:01.266Z,30.68
2019-02-28T23:37:31.897Z,32.48
2019-02-28T23:40:02.221Z,31.65
2019-02-28T23:42:32.883Z,30.77
2019-02-28T23:45:03.588Z,30.02
2019-02-28T23:47:34.195Z,31.12
2019-02-28T23:50:08.931Z,31.48
2019-02-28T23:52:39.614Z,30.02
2019-02-28T23:55:10.610Z,30.08
2019-02-28T23:57:40.976Z,30.50
